sensor_id;sensor_type;location;lat;lon;timestamp;P1;durP1;ratioP1;P2;durP2;ratioP2
72379;SDS011;60354;47.798;12.472;2023-08-24T00:01:31;8.82;;;5.68;;
72379;SDS011;60354;47.798;12.472;2023-08-24T00:03:57;7.93;;;5.38;;
72379;SDS011;60354;47.798;12.472;2023-08-24T00:06:22;10.00;;;5.47;;
72379;SDS011;60354;47.798;12.472;2023-08-24T00:08:48;9.68;;;5.18;;
72379;SDS011;60354;47.798;12.472;2023-08-24T00:11:13;8.50;;;5.57;;
72379;SDS011;60354;47.798;12.472;2023-08-24T00:13:40;10.85;;;5.70;;
72379;SDS011;60354;47.798;12.472;2023-08-24T00:16:11;7.82;;;5.53;;
72379;SDS011;60354;47.798;12.472;2023-08-24T00:18:37;9.07;;;5.78;;
72379;SDS011;60354;47.798;12.472;2023-08-24T00:21:02;9.20;;;5.55;;
72379;SDS011;60354;47.798;12.472;2023-08-24T00:23:28;7.68;;;5.57;;
72379;SDS011;60354;47.798;12.472;2023-08-24T00:25:53;9.95;;;5.43;;
72379;SDS011;60354;47.798;12.472;2023-08-24T00:28:18;8.07;;;5.72;;
72379;SDS011;60354;47.798;12.472;2023-08-24T00:30:44;9.25;;;5.72;;
72379;SDS011;60354;47.798;12.472;2023-08-24T00:33:10;9.38;;;5.55;;
72379;SDS011;60354;47.798;12.472;2023-08-24T00:35:35;7.03;;;5.53;;
72379;SDS011;60354;47.798;12.472;2023-08-24T00:38:01;7.32;;;5.57;;
72379;SDS011;60354;47.798;12.472;2023-08-24T00:40:27;7.63;;;5.90;;
72379;SDS011;60354;47.798;12.472;2023-08-24T00:42:52;9.90;;;5.88;;
72379;SDS011;60354;47.798;12.472;2023-08-24T00:45:18;10.05;;;5.80;;
72379;SDS011;60354;47.798;12.472;2023-08-24T00:47:46;10.93;;;5.75;;
72379;SDS011;60354;47.798;12.472;2023-08-24T00:50:13;6.55;;;5.47;;
72379;SDS011;60354;47.798;12.472;2023-08-24T00:52:40;10.63;;;5.80;;
72379;SDS011;60354;47.798;12.472;2023-08-24T00:55:07;10.38;;;5.70;;
72379;SDS011;60354;47.798;12.472;2023-08-24T00:57:33;11.68;;;6.13;;
72379;SDS011;60354;47.798;12.472;2023-08-24T01:00:00;8.32;;;5.75;;
72379;SDS011;60354;47.798;12.472;2023-08-24T01:02:28;9.07;;;5.75;;
72379;SDS011;60354;47.798;12.472;2023-08-24T01:04:54;11.00;;;5.80;;
72379;SDS011;60354;47.798;12.472;2023-08-24T01:07:19;10.95;;;6.30;;
72379;SDS011;60354;47.798;12.472;2023-08-24T01:09:46;11.50;;;6.03;;
72379;SDS011;60354;47.798;12.472;2023-08-24T01:17:24;10.80;;;6.20;;
72379;SDS011;60354;47.798;12.472;2023-08-24T01:19:54;8.77;;;6.20;;
72379;SDS011;60354;47.798;12.472;2023-08-24T01:22:23;9.82;;;6.00;;
72379;SDS011;60354;47.798;12.472;2023-08-24T01:27:55;9.18;;;6.05;;
72379;SDS011;60354;47.798;12.472;2023-08-24T01:30:20;8.77;;;6.03;;
72379;SDS011;60354;47.798;12.472;2023-08-24T01:32:46;9.13;;;5.80;;
72379;SDS011;60354;47.798;12.472;2023-08-24T01:35:12;8.15;;;6.15;;
72379;SDS011;60354;47.798;12.472;2023-08-24T01:37:37;9.50;;;6.38;;
72379;SDS011;60354;47.798;12.472;2023-08-24T01:40:07;9.45;;;6.10;;
72379;SDS011;60354;47.798;12.472;2023-08-24T01:42:49;9.75;;;6.50;;
72379;SDS011;60354;47.798;12.472;2023-08-24T01:45:20;9.02;;;5.60;;
72379;SDS011;60354;47.798;12.472;2023-08-24T01:47:49;9.43;;;6.40;;
72379;SDS011;60354;47.798;12.472;2023-08-24T01:50:15;9.18;;;5.80;;
72379;SDS011;60354;47.798;12.472;2023-08-24T01:52:41;7.85;;;5.20;;
72379;SDS011;60354;47.798;12.472;2023-08-24T01:55:07;10.20;;;5.60;;
72379;SDS011;60354;47.798;12.472;2023-08-24T01:57:33;10.20;;;6.30;;
72379;SDS011;60354;47.798;12.472;2023-08-24T01:59:58;10.65;;;6.32;;
72379;SDS011;60354;47.798;12.472;2023-08-24T02:02:24;9.63;;;6.28;;
72379;SDS011;60354;47.798;12.472;2023-08-24T02:04:50;8.52;;;5.93;;
72379;SDS011;60354;47.798;12.472;2023-08-24T02:07:16;9.48;;;6.13;;
72379;SDS011;60354;47.798;12.472;2023-08-24T02:09:41;8.93;;;6.40;;
72379;SDS011;60354;47.798;12.472;2023-08-24T02:12:07;8.30;;;5.90;;
72379;SDS011;60354;47.798;12.472;2023-08-24T02:14:33;10.60;;;5.88;;
72379;SDS011;60354;47.798;12.472;2023-08-24T02:16:58;9.43;;;5.97;;
72379;SDS011;60354;47.798;12.472;2023-08-24T02:19:24;8.13;;;6.35;;
72379;SDS011;60354;47.798;12.472;2023-08-24T02:21:49;9.32;;;5.63;;
72379;SDS011;60354;47.798;12.472;2023-08-24T02:24:15;10.32;;;5.85;;
72379;SDS011;60354;47.798;12.472;2023-08-24T02:26:40;8.75;;;6.25;;
72379;SDS011;60354;47.798;12.472;2023-08-24T02:29:06;12.13;;;6.30;;
72379;SDS011;60354;47.798;12.472;2023-08-24T02:31:31;7.72;;;5.90;;
72379;SDS011;60354;47.798;12.472;2023-08-24T02:33:57;9.68;;;5.53;;
72379;SDS011;60354;47.798;12.472;2023-08-24T02:36:23;9.02;;;5.97;;
72379;SDS011;60354;47.798;12.472;2023-08-24T02:38:48;9.65;;;6.20;;
72379;SDS011;60354;47.798;12.472;2023-08-24T02:41:14;10.77;;;6.60;;
72379;SDS011;60354;47.798;12.472;2023-08-24T02:43:40;7.05;;;6.05;;
72379;SDS011;60354;47.798;12.472;2023-08-24T02:46:07;7.18;;;6.07;;
72379;SDS011;60354;47.798;12.472;2023-08-24T02:48:33;8.60;;;5.90;;
72379;SDS011;60354;47.798;12.472;2023-08-24T02:51:01;9.50;;;6.10;;
72379;SDS011;60354;47.798;12.472;2023-08-24T02:53:28;7.78;;;5.90;;
72379;SDS011;60354;47.798;12.472;2023-08-24T02:55:57;12.10;;;6.45;;
72379;SDS011;60354;47.798;12.472;2023-08-24T02:58:23;10.35;;;6.40;;
72379;SDS011;60354;47.798;12.472;2023-08-24T03:00:49;8.20;;;6.00;;
72379;SDS011;60354;47.798;12.472;2023-08-24T03:03:15;10.15;;;6.07;;
72379;SDS011;60354;47.798;12.472;2023-08-24T03:05:40;11.23;;;6.25;;
72379;SDS011;60354;47.798;12.472;2023-08-24T03:08:07;9.52;;;6.10;;
72379;SDS011;60354;47.798;12.472;2023-08-24T03:10:36;6.93;;;6.07;;
72379;SDS011;60354;47.798;12.472;2023-08-24T03:13:01;10.45;;;6.75;;
72379;SDS011;60354;47.798;12.472;2023-08-24T03:15:29;9.25;;;6.25;;
72379;SDS011;60354;47.798;12.472;2023-08-24T03:17:55;7.72;;;5.40;;
72379;SDS011;60354;47.798;12.472;2023-08-24T03:20:20;7.10;;;5.53;;
72379;SDS011;60354;47.798;12.472;2023-08-24T03:22:47;8.43;;;6.07;;
72379;SDS011;60354;47.798;12.472;2023-08-24T03:25:13;11.63;;;5.80;;
72379;SDS011;60354;47.798;12.472;2023-08-24T03:27:38;11.65;;;5.85;;
72379;SDS011;60354;47.798;12.472;2023-08-24T03:30:04;7.10;;;5.70;;
72379;SDS011;60354;47.798;12.472;2023-08-24T03:32:30;7.70;;;5.60;;
72379;SDS011;60354;47.798;12.472;2023-08-24T03:34:59;9.45;;;6.32;;
72379;SDS011;60354;47.798;12.472;2023-08-24T03:37:25;9.63;;;6.00;;
72379;SDS011;60354;47.798;12.472;2023-08-24T03:39:51;10.38;;;6.43;;
72379;SDS011;60354;47.798;12.472;2023-08-24T03:42:17;8.75;;;6.00;;
72379;SDS011;60354;47.798;12.472;2023-08-24T03:44:42;7.85;;;6.00;;
72379;SDS011;60354;47.798;12.472;2023-08-24T03:47:08;8.77;;;6.13;;
72379;SDS011;60354;47.798;12.472;2023-08-24T03:49:34;9.45;;;5.97;;
72379;SDS011;60354;47.798;12.472;2023-08-24T03:52:00;12.90;;;7.07;;
72379;SDS011;60354;47.798;12.472;2023-08-24T03:54:26;9.50;;;6.10;;
72379;SDS011;60354;47.798;12.472;2023-08-24T03:56:52;11.18;;;6.70;;
72379;SDS011;60354;47.798;12.472;2023-08-24T03:59:19;9.23;;;6.07;;
72379;SDS011;60354;47.798;12.472;2023-08-24T04:01:46;9.50;;;6.13;;
72379;SDS011;60354;47.798;12.472;2023-08-24T04:04:11;9.00;;;6.53;;
72379;SDS011;60354;47.798;12.472;2023-08-24T04:06:36;8.30;;;6.47;;
72379;SDS011;60354;47.798;12.472;2023-08-24T04:09:02;11.93;;;7.13;;
72379;SDS011;60354;47.798;12.472;2023-08-24T04:11:27;9.57;;;6.60;;
72379;SDS011;60354;47.798;12.472;2023-08-24T04:13:53;12.30;;;6.95;;
72379;SDS011;60354;47.798;12.472;2023-08-24T04:16:18;10.27;;;6.88;;
72379;SDS011;60354;47.798;12.472;2023-08-24T04:18:44;8.93;;;7.00;;
72379;SDS011;60354;47.798;12.472;2023-08-24T04:21:10;9.18;;;7.10;;
72379;SDS011;60354;47.798;12.472;2023-08-24T04:23:36;11.45;;;6.88;;
72379;SDS011;60354;47.798;12.472;2023-08-24T04:26:01;9.60;;;6.40;;
72379;SDS011;60354;47.798;12.472;2023-08-24T04:28:27;10.57;;;6.80;;
72379;SDS011;60354;47.798;12.472;2023-08-24T04:30:53;10.48;;;6.60;;
72379;SDS011;60354;47.798;12.472;2023-08-24T04:33:23;9.93;;;6.50;;
72379;SDS011;60354;47.798;12.472;2023-08-24T04:35:48;9.60;;;7.18;;
72379;SDS011;60354;47.798;12.472;2023-08-24T04:38:15;9.18;;;6.80;;
72379;SDS011;60354;47.798;12.472;2023-08-24T04:40:59;10.25;;;6.55;;
72379;SDS011;60354;47.798;12.472;2023-08-24T04:43:25;8.82;;;6.10;;
72379;SDS011;60354;47.798;12.472;2023-08-24T04:45:52;10.40;;;6.13;;
72379;SDS011;60354;47.798;12.472;2023-08-24T04:48:19;9.45;;;6.18;;
72379;SDS011;60354;47.798;12.472;2023-08-24T04:50:48;10.55;;;6.40;;
72379;SDS011;60354;47.798;12.472;2023-08-24T04:53:17;10.93;;;6.82;;
72379;SDS011;60354;47.798;12.472;2023-08-24T04:55:43;7.78;;;6.47;;
72379;SDS011;60354;47.798;12.472;2023-08-24T04:58:09;12.85;;;6.47;;
72379;SDS011;60354;47.798;12.472;2023-08-24T05:00:36;9.75;;;6.45;;
72379;SDS011;60354;47.798;12.472;2023-08-24T05:03:02;9.52;;;7.28;;
72379;SDS011;60354;47.798;12.472;2023-08-24T05:05:29;12.80;;;6.90;;
72379;SDS011;60354;47.798;12.472;2023-08-24T05:07:56;11.60;;;7.22;;
72379;SDS011;60354;47.798;12.472;2023-08-24T05:10:22;10.55;;;7.05;;
72379;SDS011;60354;47.798;12.472;2023-08-24T05:12:48;8.77;;;7.00;;
72379;SDS011;60354;47.798;12.472;2023-08-24T05:15:13;8.50;;;6.68;;
72379;SDS011;60354;47.798;12.472;2023-08-24T05:17:39;9.73;;;7.25;;
72379;SDS011;60354;47.798;12.472;2023-08-24T05:20:06;11.63;;;6.35;;
72379;SDS011;60354;47.798;12.472;2023-08-24T05:22:33;12.05;;;6.38;;
72379;SDS011;60354;47.798;12.472;2023-08-24T05:24:59;7.75;;;6.60;;
72379;SDS011;60354;47.798;12.472;2023-08-24T05:27:25;10.70;;;7.00;;
72379;SDS011;60354;47.798;12.472;2023-08-24T05:29:50;12.80;;;6.95;;
72379;SDS011;60354;47.798;12.472;2023-08-24T05:32:16;18.10;;;7.22;;
72379;SDS011;60354;47.798;12.472;2023-08-24T05:34:41;10.48;;;6.85;;
72379;SDS011;60354;47.798;12.472;2023-08-24T05:37:07;12.38;;;6.57;;
72379;SDS011;60354;47.798;12.472;2023-08-24T05:39:32;12.63;;;6.82;;
72379;SDS011;60354;47.798;12.472;2023-08-24T05:41:58;12.43;;;6.60;;
72379;SDS011;60354;47.798;12.472;2023-08-24T05:44:23;12.15;;;7.10;;
72379;SDS011;60354;47.798;12.472;2023-08-24T05:46:49;9.75;;;6.78;;
72379;SDS011;60354;47.798;12.472;2023-08-24T05:49:14;8.90;;;6.68;;
72379;SDS011;60354;47.798;12.472;2023-08-24T05:51:40;12.02;;;6.97;;
72379;SDS011;60354;47.798;12.472;2023-08-24T05:54:05;9.45;;;6.82;;
72379;SDS011;60354;47.798;12.472;2023-08-24T05:56:31;11.32;;;6.55;;
72379;SDS011;60354;47.798;12.472;2023-08-24T05:58:57;8.23;;;6.72;;
72379;SDS011;60354;47.798;12.472;2023-08-24T06:01:23;13.20;;;6.80;;
72379;SDS011;60354;47.798;12.472;2023-08-24T06:03:50;10.68;;;6.70;;
72379;SDS011;60354;47.798;12.472;2023-08-24T06:06:15;13.48;;;6.75;;
72379;SDS011;60354;47.798;12.472;2023-08-24T06:08:41;8.43;;;6.22;;
72379;SDS011;60354;47.798;12.472;2023-08-24T06:11:07;8.52;;;6.03;;
72379;SDS011;60354;47.798;12.472;2023-08-24T06:13:32;8.65;;;6.10;;
72379;SDS011;60354;47.798;12.472;2023-08-24T06:15:58;11.10;;;6.18;;
72379;SDS011;60354;47.798;12.472;2023-08-24T06:18:24;9.30;;;6.40;;
72379;SDS011;60354;47.798;12.472;2023-08-24T06:20:49;7.78;;;6.20;;
72379;SDS011;60354;47.798;12.472;2023-08-24T06:23:18;10.02;;;6.57;;
72379;SDS011;60354;47.798;12.472;2023-08-24T06:25:43;9.00;;;6.18;;
72379;SDS011;60354;47.798;12.472;2023-08-24T06:28:10;12.57;;;6.45;;
72379;SDS011;60354;47.798;12.472;2023-08-24T06:30:39;9.27;;;6.15;;
72379;SDS011;60354;47.798;12.472;2023-08-24T06:33:05;12.13;;;6.63;;
72379;SDS011;60354;47.798;12.472;2023-08-24T06:35:32;13.25;;;6.63;;
72379;SDS011;60354;47.798;12.472;2023-08-24T06:37:58;10.60;;;5.97;;
72379;SDS011;60354;47.798;12.472;2023-08-24T06:40:24;14.82;;;6.32;;
72379;SDS011;60354;47.798;12.472;2023-08-24T06:42:49;13.27;;;6.07;;
72379;SDS011;60354;47.798;12.472;2023-08-24T06:45:15;10.45;;;6.15;;
72379;SDS011;60354;47.798;12.472;2023-08-24T06:47:42;9.32;;;6.35;;
72379;SDS011;60354;47.798;12.472;2023-08-24T06:50:07;10.45;;;6.05;;
72379;SDS011;60354;47.798;12.472;2023-08-24T06:52:33;12.07;;;6.03;;
72379;SDS011;60354;47.798;12.472;2023-08-24T06:54:59;10.75;;;5.97;;
72379;SDS011;60354;47.798;12.472;2023-08-24T06:57:24;7.63;;;6.13;;
72379;SDS011;60354;47.798;12.472;2023-08-24T06:59:50;10.40;;;5.97;;
72379;SDS011;60354;47.798;12.472;2023-08-24T07:02:16;9.35;;;6.22;;
72379;SDS011;60354;47.798;12.472;2023-08-24T07:04:43;16.00;;;6.20;;
72379;SDS011;60354;47.798;12.472;2023-08-24T07:07:09;8.38;;;5.70;;
72379;SDS011;60354;47.798;12.472;2023-08-24T07:09:34;15.57;;;6.15;;
72379;SDS011;60354;47.798;12.472;2023-08-24T07:12:01;11.93;;;5.78;;
72379;SDS011;60354;47.798;12.472;2023-08-24T07:14:28;9.75;;;5.47;;
72379;SDS011;60354;47.798;12.472;2023-08-24T07:16:54;9.27;;;5.78;;
72379;SDS011;60354;47.798;12.472;2023-08-24T07:19:19;8.60;;;5.40;;
72379;SDS011;60354;47.798;12.472;2023-08-24T07:21:45;16.25;;;6.05;;
72379;SDS011;60354;47.798;12.472;2023-08-24T07:24:11;9.23;;;5.22;;
72379;SDS011;60354;47.798;12.472;2023-08-24T07:26:37;10.38;;;5.75;;
72379;SDS011;60354;47.798;12.472;2023-08-24T07:29:02;10.85;;;5.65;;
72379;SDS011;60354;47.798;12.472;2023-08-24T07:31:28;8.00;;;5.45;;
72379;SDS011;60354;47.798;12.472;2023-08-24T07:33:53;7.57;;;5.53;;
72379;SDS011;60354;47.798;12.472;2023-08-24T07:36:19;9.07;;;5.57;;
72379;SDS011;60354;47.798;12.472;2023-08-24T07:38:44;8.10;;;5.40;;
72379;SDS011;60354;47.798;12.472;2023-08-24T07:41:12;8.48;;;5.55;;
72379;SDS011;60354;47.798;12.472;2023-08-24T07:43:37;12.35;;;5.93;;
72379;SDS011;60354;47.798;12.472;2023-08-24T07:46:03;13.32;;;5.78;;
72379;SDS011;60354;47.798;12.472;2023-08-24T07:48:30;13.98;;;5.68;;
72379;SDS011;60354;47.798;12.472;2023-08-24T07:50:55;9.38;;;5.47;;
72379;SDS011;60354;47.798;12.472;2023-08-24T07:53:21;9.10;;;5.53;;
72379;SDS011;60354;47.798;12.472;2023-08-24T07:55:46;11.98;;;5.57;;
72379;SDS011;60354;47.798;12.472;2023-08-24T07:58:12;11.52;;;5.50;;
72379;SDS011;60354;47.798;12.472;2023-08-24T08:00:38;8.00;;;5.28;;
72379;SDS011;60354;47.798;12.472;2023-08-24T08:03:04;10.27;;;5.65;;
72379;SDS011;60354;47.798;12.472;2023-08-24T08:05:29;10.00;;;5.55;;
72379;SDS011;60354;47.798;12.472;2023-08-24T08:07:55;10.70;;;5.57;;
72379;SDS011;60354;47.798;12.472;2023-08-24T08:10:21;7.47;;;5.30;;
72379;SDS011;60354;47.798;12.472;2023-08-24T08:12:46;10.32;;;6.20;;
72379;SDS011;60354;47.798;12.472;2023-08-24T08:15:12;11.52;;;5.53;;
72379;SDS011;60354;47.798;12.472;2023-08-24T08:17:38;11.18;;;5.75;;
72379;SDS011;60354;47.798;12.472;2023-08-24T08:20:03;11.20;;;5.57;;
72379;SDS011;60354;47.798;12.472;2023-08-24T08:22:29;11.77;;;5.60;;
72379;SDS011;60354;47.798;12.472;2023-08-24T08:24:55;12.20;;;5.85;;
72379;SDS011;60354;47.798;12.472;2023-08-24T08:27:22;8.75;;;5.50;;
72379;SDS011;60354;47.798;12.472;2023-08-24T08:29:48;13.70;;;5.60;;
72379;SDS011;60354;47.798;12.472;2023-08-24T08:32:13;8.07;;;5.43;;
72379;SDS011;60354;47.798;12.472;2023-08-24T08:34:39;10.93;;;5.57;;
72379;SDS011;60354;47.798;12.472;2023-08-24T08:37:04;10.05;;;5.90;;
72379;SDS011;60354;47.798;12.472;2023-08-24T08:39:30;8.63;;;5.60;;
72379;SDS011;60354;47.798;12.472;2023-08-24T08:41:57;8.57;;;5.65;;
72379;SDS011;60354;47.798;12.472;2023-08-24T08:44:23;11.85;;;5.63;;
72379;SDS011;60354;47.798;12.472;2023-08-24T08:46:51;13.13;;;5.40;;
72379;SDS011;60354;47.798;12.472;2023-08-24T08:49:17;9.80;;;5.88;;
72379;SDS011;60354;47.798;12.472;2023-08-24T08:51:44;10.32;;;5.97;;
72379;SDS011;60354;47.798;12.472;2023-08-24T08:54:10;9.13;;;5.43;;
72379;SDS011;60354;47.798;12.472;2023-08-24T08:56:36;7.95;;;5.43;;
72379;SDS011;60354;47.798;12.472;2023-08-24T08:59:02;10.05;;;5.63;;
72379;SDS011;60354;47.798;12.472;2023-08-24T09:01:37;9.05;;;5.70;;
72379;SDS011;60354;47.798;12.472;2023-08-24T09:04:03;15.95;;;5.53;;
72379;SDS011;60354;47.798;12.472;2023-08-24T09:06:31;10.60;;;5.68;;
72379;SDS011;60354;47.798;12.472;2023-08-24T09:08:56;8.05;;;5.88;;
72379;SDS011;60354;47.798;12.472;2023-08-24T09:11:22;6.38;;;4.97;;
72379;SDS011;60354;47.798;12.472;2023-08-24T09:13:49;7.50;;;5.40;;
72379;SDS011;60354;47.798;12.472;2023-08-24T09:16:14;8.40;;;5.75;;
72379;SDS011;60354;47.798;12.472;2023-08-24T09:18:42;11.55;;;5.65;;
72379;SDS011;60354;47.798;12.472;2023-08-24T09:21:11;11.50;;;5.90;;
72379;SDS011;60354;47.798;12.472;2023-08-24T09:23:37;8.18;;;5.57;;
72379;SDS011;60354;47.798;12.472;2023-08-24T09:26:08;12.43;;;5.95;;
72379;SDS011;60354;47.798;12.472;2023-08-24T09:28:33;9.05;;;5.78;;
72379;SDS011;60354;47.798;12.472;2023-08-24T09:31:01;8.48;;;5.63;;
72379;SDS011;60354;47.798;12.472;2023-08-24T09:33:28;11.35;;;5.55;;
72379;SDS011;60354;47.798;12.472;2023-08-24T09:35:55;7.22;;;5.30;;
72379;SDS011;60354;47.798;12.472;2023-08-24T09:38:26;10.10;;;6.07;;
72379;SDS011;60354;47.798;12.472;2023-08-24T09:40:52;10.55;;;5.78;;
72379;SDS011;60354;47.798;12.472;2023-08-24T09:43:19;12.38;;;6.25;;
72379;SDS011;60354;47.798;12.472;2023-08-24T09:45:52;8.90;;;5.78;;
72379;SDS011;60354;47.798;12.472;2023-08-24T09:48:19;9.30;;;6.05;;
72379;SDS011;60354;47.798;12.472;2023-08-24T09:50:46;7.82;;;5.53;;
72379;SDS011;60354;47.798;12.472;2023-08-24T09:53:23;9.18;;;5.45;;
72379;SDS011;60354;47.798;12.472;2023-08-24T09:55:52;10.75;;;5.88;;
72379;SDS011;60354;47.798;12.472;2023-08-24T09:58:21;9.60;;;6.10;;
72379;SDS011;60354;47.798;12.472;2023-08-24T10:00:47;10.85;;;5.82;;
72379;SDS011;60354;47.798;12.472;2023-08-24T10:03:15;8.20;;;6.28;;
72379;SDS011;60354;47.798;12.472;2023-08-24T10:05:55;10.40;;;6.40;;
72379;SDS011;60354;47.798;12.472;2023-08-24T10:08:26;13.15;;;6.30;;
72379;SDS011;60354;47.798;12.472;2023-08-24T10:10:53;9.05;;;5.97;;
72379;SDS011;60354;47.798;12.472;2023-08-24T10:13:25;11.57;;;6.20;;
72379;SDS011;60354;47.798;12.472;2023-08-24T10:15:56;11.50;;;5.72;;
72379;SDS011;60354;47.798;12.472;2023-08-24T10:18:22;9.27;;;5.55;;
72379;SDS011;60354;47.798;12.472;2023-08-24T10:20:49;9.65;;;5.50;;
72379;SDS011;60354;47.798;12.472;2023-08-24T10:23:15;9.57;;;5.18;;
72379;SDS011;60354;47.798;12.472;2023-08-24T10:25:41;9.70;;;5.32;;
72379;SDS011;60354;47.798;12.472;2023-08-24T10:28:09;9.15;;;5.45;;
72379;SDS011;60354;47.798;12.472;2023-08-24T10:30:36;9.68;;;5.47;;
72379;SDS011;60354;47.798;12.472;2023-08-24T10:33:03;10.43;;;5.97;;
72379;SDS011;60354;47.798;12.472;2023-08-24T10:35:31;7.40;;;5.00;;
72379;SDS011;60354;47.798;12.472;2023-08-24T10:37:58;13.10;;;6.15;;
72379;SDS011;60354;47.798;12.472;2023-08-24T10:40:30;14.15;;;5.85;;
72379;SDS011;60354;47.798;12.472;2023-08-24T10:43:03;10.23;;;5.43;;
72379;SDS011;60354;47.798;12.472;2023-08-24T10:48:23;9.77;;;5.40;;
72379;SDS011;60354;47.798;12.472;2023-08-24T10:56:13;12.63;;;5.45;;
72379;SDS011;60354;47.798;12.472;2023-08-24T10:58:43;12.52;;;5.90;;
72379;SDS011;60354;47.798;12.472;2023-08-24T11:03:45;14.13;;;5.68;;
72379;SDS011;60354;47.798;12.472;2023-08-24T11:06:21;14.57;;;5.40;;
72379;SDS011;60354;47.798;12.472;2023-08-24T11:08:48;12.40;;;5.55;;
72379;SDS011;60354;47.798;12.472;2023-08-24T11:11:23;10.88;;;5.28;;
72379;SDS011;60354;47.798;12.472;2023-08-24T11:16:47;9.40;;;5.35;;
72379;SDS011;60354;47.798;12.472;2023-08-24T11:19:14;11.85;;;5.63;;
72379;SDS011;60354;47.798;12.472;2023-08-24T11:21:40;11.65;;;5.57;;
72379;SDS011;60354;47.798;12.472;2023-08-24T11:24:11;6.50;;;4.93;;
72379;SDS011;60354;47.798;12.472;2023-08-24T11:26:43;7.90;;;5.00;;
72379;SDS011;60354;47.798;12.472;2023-08-24T11:29:09;8.88;;;5.20;;
72379;SDS011;60354;47.798;12.472;2023-08-24T11:31:36;10.68;;;5.53;;
72379;SDS011;60354;47.798;12.472;2023-08-24T11:34:02;9.82;;;5.45;;
72379;SDS011;60354;47.798;12.472;2023-08-24T11:36:29;8.95;;;5.88;;
72379;SDS011;60354;47.798;12.472;2023-08-24T11:38:57;10.77;;;5.70;;
72379;SDS011;60354;47.798;12.472;2023-08-24T11:41:23;12.20;;;5.78;;
72379;SDS011;60354;47.798;12.472;2023-08-24T11:43:49;12.13;;;5.70;;
72379;SDS011;60354;47.798;12.472;2023-08-24T11:46:24;11.07;;;5.60;;
72379;SDS011;60354;47.798;12.472;2023-08-24T11:48:50;10.25;;;5.47;;
72379;SDS011;60354;47.798;12.472;2023-08-24T11:51:16;9.63;;;5.43;;
72379;SDS011;60354;47.798;12.472;2023-08-24T11:53:42;10.30;;;5.13;;
72379;SDS011;60354;47.798;12.472;2023-08-24T11:56:09;9.88;;;5.63;;
72379;SDS011;60354;47.798;12.472;2023-08-24T11:58:39;7.75;;;5.25;;
72379;SDS011;60354;47.798;12.472;2023-08-24T12:01:05;11.07;;;5.60;;
72379;SDS011;60354;47.798;12.472;2023-08-24T12:03:35;10.02;;;5.50;;
72379;SDS011;60354;47.798;12.472;2023-08-24T12:06:01;11.55;;;5.32;;
72379;SDS011;60354;47.798;12.472;2023-08-24T12:08:36;11.43;;;5.53;;
72379;SDS011;60354;47.798;12.472;2023-08-24T12:11:09;9.73;;;5.20;;
72379;SDS011;60354;47.798;12.472;2023-08-24T12:13:48;8.13;;;5.40;;
72379;SDS011;60354;47.798;12.472;2023-08-24T12:16:16;9.48;;;5.10;;
72379;SDS011;60354;47.798;12.472;2023-08-24T12:18:53;10.43;;;5.30;;
72379;SDS011;60354;47.798;12.472;2023-08-24T12:21:20;8.15;;;5.57;;
72379;SDS011;60354;47.798;12.472;2023-08-24T12:23:54;9.32;;;5.35;;
72379;SDS011;60354;47.798;12.472;2023-08-24T12:26:31;11.20;;;5.47;;
72379;SDS011;60354;47.798;12.472;2023-08-24T12:29:07;9.13;;;5.45;;
72379;SDS011;60354;47.798;12.472;2023-08-24T12:31:33;11.57;;;5.43;;
72379;SDS011;60354;47.798;12.472;2023-08-24T12:36:34;8.73;;;5.70;;
72379;SDS011;60354;47.798;12.472;2023-08-24T12:39:03;10.05;;;5.60;;
72379;SDS011;60354;47.798;12.472;2023-08-24T12:41:30;10.18;;;5.72;;
72379;SDS011;60354;47.798;12.472;2023-08-24T12:43:56;13.38;;;5.88;;
72379;SDS011;60354;47.798;12.472;2023-08-24T12:46:21;12.77;;;5.32;;
72379;SDS011;60354;47.798;12.472;2023-08-24T12:48:47;12.75;;;5.20;;
72379;SDS011;60354;47.798;12.472;2023-08-24T12:51:12;9.38;;;5.50;;
72379;SDS011;60354;47.798;12.472;2023-08-24T12:53:38;10.57;;;5.00;;
72379;SDS011;60354;47.798;12.472;2023-08-24T12:56:03;8.65;;;5.20;;
72379;SDS011;60354;47.798;12.472;2023-08-24T12:58:29;12.40;;;5.30;;
72379;SDS011;60354;47.798;12.472;2023-08-24T13:00:55;18.90;;;5.25;;
72379;SDS011;60354;47.798;12.472;2023-08-24T13:03:21;11.50;;;5.57;;
72379;SDS011;60354;47.798;12.472;2023-08-24T13:05:46;14.55;;;5.22;;
72379;SDS011;60354;47.798;12.472;2023-08-24T13:08:13;11.05;;;5.22;;
72379;SDS011;60354;47.798;12.472;2023-08-24T13:10:38;8.65;;;5.30;;
72379;SDS011;60354;47.798;12.472;2023-08-24T13:13:04;13.40;;;5.15;;
72379;SDS011;60354;47.798;12.472;2023-08-24T13:15:29;8.68;;;5.20;;
72379;SDS011;60354;47.798;12.472;2023-08-24T13:17:55;7.60;;;4.80;;
72379;SDS011;60354;47.798;12.472;2023-08-24T13:20:21;10.27;;;5.25;;
72379;SDS011;60354;47.798;12.472;2023-08-24T13:22:46;7.95;;;5.10;;
72379;SDS011;60354;47.798;12.472;2023-08-24T13:25:12;8.32;;;4.75;;
72379;SDS011;60354;47.798;12.472;2023-08-24T13:27:37;9.63;;;5.03;;
72379;SDS011;60354;47.798;12.472;2023-08-24T13:30:03;8.93;;;5.05;;
72379;SDS011;60354;47.798;12.472;2023-08-24T13:32:29;8.38;;;5.07;;
72379;SDS011;60354;47.798;12.472;2023-08-24T13:34:55;9.30;;;5.10;;
72379;SDS011;60354;47.798;12.472;2023-08-24T13:37:21;9.35;;;5.13;;
72379;SDS011;60354;47.798;12.472;2023-08-24T13:39:47;10.25;;;4.90;;
72379;SDS011;60354;47.798;12.472;2023-08-24T13:42:13;14.45;;;5.40;;
72379;SDS011;60354;47.798;12.472;2023-08-24T13:44:38;10.25;;;4.97;;
72379;SDS011;60354;47.798;12.472;2023-08-24T13:47:04;14.52;;;5.60;;
72379;SDS011;60354;47.798;12.472;2023-08-24T13:49:29;11.13;;;5.10;;
72379;SDS011;60354;47.798;12.472;2023-08-24T13:51:55;9.80;;;4.97;;
72379;SDS011;60354;47.798;12.472;2023-08-24T13:54:20;10.63;;;5.05;;
72379;SDS011;60354;47.798;12.472;2023-08-24T13:56:46;8.85;;;5.15;;
72379;SDS011;60354;47.798;12.472;2023-08-24T13:59:14;11.02;;;5.22;;
72379;SDS011;60354;47.798;12.472;2023-08-24T14:01:40;9.13;;;4.93;;
72379;SDS011;60354;47.798;12.472;2023-08-24T14:04:06;8.20;;;5.32;;
72379;SDS011;60354;47.798;12.472;2023-08-24T14:06:33;8.88;;;5.30;;
72379;SDS011;60354;47.798;12.472;2023-08-24T14:09:02;17.85;;;5.22;;
72379;SDS011;60354;47.798;12.472;2023-08-24T14:11:29;11.73;;;5.45;;
72379;SDS011;60354;47.798;12.472;2023-08-24T14:13:55;10.85;;;4.88;;
72379;SDS011;60354;47.798;12.472;2023-08-24T14:16:21;14.45;;;5.32;;
72379;SDS011;60354;47.798;12.472;2023-08-24T14:18:47;10.70;;;5.25;;
72379;SDS011;60354;47.798;12.472;2023-08-24T14:21:13;11.85;;;5.40;;
72379;SDS011;60354;47.798;12.472;2023-08-24T14:23:40;10.07;;;5.60;;
72379;SDS011;60354;47.798;12.472;2023-08-24T14:26:06;10.10;;;5.32;;
72379;SDS011;60354;47.798;12.472;2023-08-24T14:28:48;11.48;;;5.32;;
72379;SDS011;60354;47.798;12.472;2023-08-24T14:31:24;11.63;;;5.82;;
72379;SDS011;60354;47.798;12.472;2023-08-24T14:33:51;17.17;;;5.78;;
72379;SDS011;60354;47.798;12.472;2023-08-24T14:36:17;10.10;;;5.30;;
72379;SDS011;60354;47.798;12.472;2023-08-24T14:38:45;15.68;;;5.35;;
72379;SDS011;60354;47.798;12.472;2023-08-24T14:41:11;10.25;;;4.95;;
72379;SDS011;60354;47.798;12.472;2023-08-24T14:43:38;9.63;;;5.18;;
72379;SDS011;60354;47.798;12.472;2023-08-24T14:46:04;14.35;;;5.60;;
72379;SDS011;60354;47.798;12.472;2023-08-24T14:48:30;9.82;;;5.50;;
72379;SDS011;60354;47.798;12.472;2023-08-24T14:50:55;13.10;;;5.50;;